Scroll down
FLIGHT INFORMATION
China Airlines

CAL205

At Arrival Gate

KLAX
 KSEA
DATE: 2022-02-05
GATE: 
GATE DEPARTURE: 17:48
TAKEOFF: 17:54
DATE: 2022-02-05
GATE:  -
LANDING: 20:05
GATE ARRIVAL: 20:09
FLIGHT DATA
Crew: 
Speed: 
918 kph
Altitude: 
38,021 ft
Stage Length: 
1,537.1 km
Block Time: 
2.3 hrs
Flight Time: 
2.2 hrs
Fuel Used: 
21,009 kg
Cleared Route: KLAX HIIPR EVOSE MKGEE MLIBU LADYJ RUGBY OROSZ HEYJO CSTRO SHIMR LKV KSEA
TRACK DATA
50,000 ft 1,000 kts
AIRCRAFT INFO AND CUMULATIVE STATS
Aircraft Type: 
B744F
Registration: 
SELCAL: 
AHDE
MSN/LN: 
33731 / 1334
Operator: 
Total Flights: 
1
Total Block Time: 
2.3 hrs
Total Flight Time: 
2.2 hrs
Total Fuel Used: 
21,009 kg
DATALINK LOG | Newest first | Current as of: 2022-10-05 21:43:24
LABEL SEQUENCE CONTENT Dn/Up
QD111120:09 62.6▼ Dn
QC080820:05▼ Dn
QB560317:54▼ Dn
QA495717:48 109.1▼ Dn
A34504CLEARED TO KSEA VIA LADYJ4 CSTRO SHIMR LKV HAWKZ7. SQUAWK 0735.▲ Up
2U4501KLAX 050153Z 27006KT 10SM CLR 16/03 A3027 RMK AO2 SLP251 T01560033▲ Up
2S4500KLAX▼ Dn
Q04353[LINK ACK]▲ Up
Q04352[LINK TEST]▼ Dn


AIRCRAFT HISTORY
FLIGHT DATE FLIGHT NO. ORIGIN DESTINATION CLEARED ROUTE BLOCK TIME FLIGHT TIME FUEL USED PILOT
2022-02-05CAL205KLAX KSEA KLAX HIIPR EVOSE MKGEE MLIBU LADYJ RUGBY OROSZ HEYJO CSTRO SHIMR LKV KSEA2.3 hrs2.2 hrs46,318 lbMichael Roth